Time;durP1;ratioP1;P1;durP2;ratioP2;P2;SDS_P1;SDS_P2;PMS_P1;PMS_P2;Temp;Humidity;BMP_temperature;BMP_pressure;BME280_temperature;BME280_humidity;BME280_pressure;Samples;Min_cycle;Max_cycle;Signal;HPM_P1;HPM_P2
2023/03/24 00:02:21;;;;;;;4.75;3.40;;;12.50;99.90;;;;;;4985065;28;20037;-39
2023/03/24 00:04:48;;;;;;;6.47;3.75;;;12.40;99.90;;;;;;4974963;28;21304;-39
2023/03/24 00:07:15;;;;;;;4.32;3.45;;;12.30;99.90;;;;;;4971162;28;20092;-39
2023/03/24 00:09:42;;;;;;;4.63;3.53;;;12.20;99.90;;;;;;4968455;28;20035;-39
2023/03/24 00:12:09;;;;;;;4.38;3.20;;;12.20;99.90;;;;;;4972724;28;20057;-39
2023/03/24 00:14:40;;;;;;;5.15;3.97;;;12.20;99.90;;;;;;4976681;28;20146;-39
2023/03/24 00:17:08;;;;;;;4.90;3.67;;;12.20;99.90;;;;;;4971459;28;20129;-39
2023/03/24 00:19:37;;;;;;;5.22;3.88;;;12.10;99.90;;;;;;4969228;28;20033;-39
2023/03/24 00:22:04;;;;;;;5.97;3.42;;;12.20;99.90;;;;;;4973637;28;20046;-39
2023/03/24 00:24:30;;;;;;;6.28;3.70;;;12.20;99.90;;;;;;4970752;28;20109;-39
2023/03/24 00:26:56;;;;;;;6.00;4.15;;;12.10;99.90;;;;;;4973181;28;20038;-39
2023/03/24 00:29:24;;;;;;;5.82;3.60;;;12.00;99.90;;;;;;4975045;28;20030;-39
2023/03/24 00:31:51;;;;;;;5.40;3.85;;;12.00;99.90;;;;;;4968982;28;20046;-39
2023/03/24 00:34:20;;;;;;;5.10;3.55;;;11.90;99.90;;;;;;4971952;28;20442;-40
2023/03/24 00:36:52;;;;;;;3.83;3.35;;;11.90;99.90;;;;;;4979765;28;20392;-39
2023/03/24 00:39:19;;;;;;;7.10;3.63;;;11.90;99.90;;;;;;4975503;28;20140;-39
2023/03/24 00:41:46;;;;;;;4.63;3.75;;;11.90;99.90;;;;;;4975333;28;20042;-39
2023/03/24 00:44:16;;;;;;;5.00;4.10;;;11.90;99.90;;;;;;4975450;28;20027;-39
2023/03/24 00:46:44;;;;;;;3.80;3.17;;;11.90;99.90;;;;;;4988358;28;20487;-39
2023/03/24 00:49:11;;;;;;;7.10;3.80;;;11.90;99.90;;;;;;4983510;28;20042;-39
2023/03/24 00:51:41;;;;;;;6.10;3.72;;;11.90;99.90;;;;;;4983770;28;20573;-39
2023/03/24 00:54:11;;;;;;;5.05;3.58;;;11.90;99.90;;;;;;4984131;28;20582;-39
2023/03/24 00:56:39;;;;;;;4.93;3.25;;;11.90;99.90;;;;;;4980979;28;20030;-39
2023/03/24 00:59:08;;;;;;;5.23;3.77;;;12.00;99.90;;;;;;4979467;28;20040;-39
2023/03/24 01:01:35;;;;;;;4.20;3.22;;;12.10;99.90;;;;;;4972253;28;21173;-39
2023/03/24 01:04:01;;;;;;;5.47;3.47;;;12.10;99.90;;;;;;4972194;28;20407;-39
2023/03/24 01:06:27;;;;;;;4.82;2.97;;;12.10;99.90;;;;;;4981447;28;20399;-40
2023/03/24 01:08:53;;;;;;;4.50;3.08;;;12.10;99.90;;;;;;4975563;28;20061;-39
2023/03/24 01:11:21;;;;;;;4.20;3.30;;;12.00;99.90;;;;;;4976824;28;20030;-39
2023/03/24 01:13:47;;;;;;;5.47;3.60;;;12.00;99.90;;;;;;4979702;28;20911;-39
2023/03/24 01:16:13;;;;;;;5.13;3.42;;;11.90;99.90;;;;;;4970849;28;20384;-39
2023/03/24 01:18:39;;;;;;;5.20;3.20;;;11.80;99.90;;;;;;4974103;28;20034;-39
2023/03/24 01:21:07;;;;;;;6.28;3.60;;;11.90;99.90;;;;;;4973795;28;20026;-39
2023/03/24 01:23:33;;;;;;;4.90;3.80;;;11.90;99.90;;;;;;4977592;28;20048;-40
2023/03/24 01:26:03;;;;;;;3.85;3.45;;;11.80;99.90;;;;;;4976181;28;20046;-39
2023/03/24 01:28:29;;;;;;;4.57;3.95;;;11.70;99.90;;;;;;4979343;28;20045;-39
2023/03/24 01:30:55;;;;;;;5.05;3.53;;;11.80;99.90;;;;;;4976488;28;20046;-39
2023/03/24 01:33:21;;;;;;;5.57;3.70;;;11.80;99.90;;;;;;4975650;28;20416;-39
2023/03/24 01:35:47;;;;;;;5.70;3.75;;;11.80;99.90;;;;;;4971111;28;20042;-39
2023/03/24 01:38:13;;;;;;;4.53;3.85;;;11.80;99.90;;;;;;4974839;28;21303;-39
2023/03/24 01:40:44;;;;;;;5.15;3.28;;;11.80;99.90;;;;;;4973454;28;20057;-39
2023/03/24 01:43:18;;;;;;;6.53;4.00;;;11.80;99.90;;;;;;4983095;28;20313;-39
2023/03/24 01:46:02;;;;;;;5.55;3.33;;;11.80;99.90;;;;;;4976863;28;20030;-39
2023/03/24 01:48:34;;;;;;;5.03;3.80;;;11.80;99.90;;;;;;4980132;28;20300;-39
2023/03/24 01:51:06;;;;;;;10.05;7.47;;;11.80;99.90;;;;;;4984207;28;20053;-39
2023/03/24 01:53:36;;;;;;;43.58;32.92;;;11.70;99.90;;;;;;4979326;28;20043;-39
2023/03/24 01:56:04;;;;;;;21.70;15.10;;;11.70;99.90;;;;;;4981043;28;20030;-39
2023/03/24 01:58:31;;;;;;;25.20;18.13;;;11.70;99.90;;;;;;4987326;28;20673;-39
2023/03/24 02:00:57;;;;;;;15.38;9.93;;;11.70;99.90;;;;;;4980844;28;20121;-32
2023/03/24 02:03:25;;;;;;;24.95;14.23;;;11.80;99.90;;;;;;4977091;28;20117;-31
2023/03/24 02:05:53;;;;;;;16.27;10.15;;;11.80;99.90;;;;;;4972635;28;20034;-32
2023/03/24 02:08:22;;;;;;;;;;;11.80;99.90;;;;;;4971158;28;20038;-32
2023/03/24 02:10:51;;;;;;;14.77;10.18;;;11.70;99.90;;;;;;4975089;28;19910;-32
2023/03/24 02:13:16;;;;;;;9.20;6.45;;;11.60;99.90;;;;;;4988413;28;20033;-32
2023/03/24 02:16:12;;;;;;;9.65;7.65;;;11.60;99.90;;;;;;4985539;28;20034;-32
2023/03/24 02:18:59;;;;;;;4.95;3.95;;;11.60;99.90;;;;;;4990564;28;20056;-31
2023/03/24 02:21:43;;;;;;;5.00;4.50;;;11.70;99.90;;;;;;4992271;28;20034;-33
2023/03/24 02:24:33;;;;;;;4.07;3.63;;;11.60;99.90;;;;;;4987965;28;20427;-32
2023/03/24 02:27:23;;;;;;;5.20;3.50;;;11.70;99.90;;;;;;4985171;28;20757;-32
2023/03/24 02:30:22;;;;;;;3.97;3.42;;;11.60;99.90;;;;;;4985535;28;20117;-32
2023/03/24 02:33:21;;;;;;;3.60;3.05;;;11.50;99.90;;;;;;4980863;28;20046;-32
2023/03/24 02:36:06;;;;;;;3.70;3.30;;;11.40;99.90;;;;;;4988953;28;20391;-32
2023/03/24 02:46:36;;;;;;;4.80;3.55;;;11.30;99.90;;;;;;4981141;28;20070;-42
2023/03/24 02:49:45;;;;;;;4.57;3.25;;;11.20;99.90;;;;;;4982179;28;20034;-42
2023/03/24 02:52:59;;;;;;;6.20;3.40;;;11.10;99.90;;;;;;4982956;28;20045;-42
2023/03/24 02:55:57;;;;;;;4.35;2.80;;;11.10;99.90;;;;;;4974972;28;20050;-42
2023/03/24 02:58:34;;;;;;;3.70;3.13;;;11.20;99.90;;;;;;4978408;28;20333;-30
2023/03/24 03:01:27;;;;;;;3.78;3.22;;;11.20;99.90;;;;;;4989233;28;20088;-31
2023/03/24 03:04:08;;;;;;;4.57;3.38;;;11.20;99.90;;;;;;5002004;28;20047;-30
2023/03/24 03:06:39;;;;;;;5.00;3.00;;;11.20;99.90;;;;;;5007386;28;20066;-30
2023/03/24 03:09:12;;;;;;;3.30;3.00;;;11.30;99.90;;;;;;4999589;28;20038;-30
2023/03/24 03:11:45;;;;;;;3.65;3.03;;;11.30;99.90;;;;;;5001368;28;20129;-30
2023/03/24 03:14:21;;;;;;;5.68;3.30;;;11.30;99.90;;;;;;5014733;28;20034;-31
2023/03/24 03:17:05;;;;;;;4.40;3.45;;;11.30;99.90;;;;;;5000649;28;20039;-30
2023/03/24 03:19:37;;;;;;;7.15;3.40;;;11.30;99.90;;;;;;5002765;28;20030;-30
2023/03/24 03:22:10;;;;;;;4.20;3.25;;;11.30;99.90;;;;;;4999612;28;20046;-29
2023/03/24 03:24:43;;;;;;;4.40;3.40;;;11.30;99.90;;;;;;5003287;28;20037;-30
2023/03/24 03:27:37;;;;;;;3.70;2.70;;;11.30;99.90;;;;;;5002659;28;20021;-31
2023/03/24 03:30:38;;;;;;;3.63;2.90;;;11.30;99.90;;;;;;5005014;28;20153;-30
2023/03/24 03:33:23;;;;;;;5.05;3.33;;;11.30;99.90;;;;;;5008040;28;20045;-30
2023/03/24 03:36:14;;;;;;;3.67;2.78;;;11.30;99.90;;;;;;5004798;28;20042;-31
2023/03/24 03:39:03;;;;;;;4.53;2.92;;;11.30;99.90;;;;;;5000070;28;20062;-32
2023/03/24 03:41:33;;;;;;;4.75;3.58;;;11.30;99.90;;;;;;5001171;28;20021;-31
2023/03/24 03:43:59;;;;;;;3.67;3.17;;;11.20;99.90;;;;;;5006894;28;20037;-30
2023/03/24 03:46:33;;;;;;;4.05;3.53;;;11.10;99.90;;;;;;5001284;28;20029;-31
2023/03/24 03:49:11;;;;;;;4.20;3.78;;;11.00;99.90;;;;;;5006713;28;20026;-29
2023/03/24 03:51:43;;;;;;;6.95;5.15;;;11.10;99.90;;;;;;4999395;28;20073;-30
2023/03/24 03:54:13;;;;;;;4.70;3.95;;;11.10;99.90;;;;;;5011321;28;20029;-32
2023/03/24 03:56:41;;;;;;;7.50;4.60;;;11.10;99.90;;;;;;5003585;28;20465;-32
2023/03/24 03:59:24;;;;;;;8.07;5.47;;;11.20;99.90;;;;;;5000912;28;20028;-31
2023/03/24 04:01:52;;;;;;;5.35;4.38;;;11.20;99.90;;;;;;5007766;28;20065;-31
2023/03/24 04:04:40;;;;;;;5.35;4.70;;;11.20;99.90;;;;;;5005674;28;20030;-31
2023/03/24 04:07:23;;;;;;;4.50;3.90;;;11.20;99.90;;;;;;5006175;28;20394;-41
2023/03/24 04:10:24;;;;;;;3.95;3.35;;;11.30;99.90;;;;;;5003072;28;20494;-41
2023/03/24 04:13:02;;;;;;;4.30;2.92;;;11.40;99.90;;;;;;4927093;29;20152;-44
2023/03/24 04:15:28;;;;;;;;;;;11.40;99.90;;;;;;4992390;28;20117;-42
2023/03/24 04:18:13;;;;;;;3.95;3.20;;;11.40;99.90;;;;;;5007275;28;20498;-42
2023/03/24 04:21:07;;;;;;;3.95;3.08;;;11.40;99.90;;;;;;5005691;28;20041;-42
2023/03/24 04:23:57;;;;;;;5.22;3.50;;;11.40;99.90;;;;;;5008369;28;20498;-42
2023/03/24 04:26:33;;;;;;;3.60;3.28;;;11.30;99.90;;;;;;5009224;28;20031;-42
2023/03/24 04:29:32;;;;;;;3.97;3.30;;;11.30;99.90;;;;;;5000790;28;20459;-43
2023/03/24 04:32:08;;;;;;;3.70;2.97;;;11.30;99.90;;;;;;4981409;28;20045;-41
2023/03/24 04:34:41;;;;;;;5.82;3.28;;;11.30;99.90;;;;;;5008945;28;20105;-41
2023/03/24 04:37:21;;;;;;;7.45;3.70;;;11.40;99.90;;;;;;5007145;28;20070;-41
2023/03/24 04:39:52;;;;;;;4.72;3.72;;;11.30;99.90;;;;;;5008883;28;20562;-41
2023/03/24 04:42:24;;;;;;;4.15;3.10;;;11.20;99.90;;;;;;5023047;28;20090;-41
2023/03/24 04:44:50;;;;;;;4.65;3.47;;;11.10;99.90;;;;;;5008368;28;20050;-42
2023/03/24 04:47:25;;;;;;;6.55;5.63;;;11.20;99.90;;;;;;5010079;28;20087;-41
2023/03/24 04:50:05;;;;;;;4.50;4.00;;;11.10;99.90;;;;;;5007587;28;20069;-41
2023/03/24 04:52:32;;;;;;;8.05;7.05;;;11.10;99.90;;;;;;5010859;28;20037;-41
2023/03/24 04:54:59;;;;;;;6.00;4.22;;;11.10;99.90;;;;;;5013969;28;20042;-42
2023/03/24 04:57:26;;;;;;;5.93;4.93;;;11.10;99.90;;;;;;5006745;28;20061;-41
2023/03/24 04:59:52;;;;;;;5.03;4.25;;;11.10;99.90;;;;;;5007407;28;20018;-41
2023/03/24 05:02:19;;;;;;;5.82;4.15;;;11.10;99.90;;;;;;5009367;28;20038;-41
2023/03/24 05:08:18;;;;;;;4.47;3.83;;;11.20;99.90;;;;;;5004267;28;20033;-41
2023/03/24 05:10:50;;;;;;;4.18;3.42;;;11.20;99.90;;;;;;5007844;28;20031;-41
2023/03/24 05:13:18;;;;;;;7.18;3.55;;;11.20;99.90;;;;;;4997892;28;20026;-32
2023/03/24 05:15:45;;;;;;;6.30;3.53;;;11.20;99.90;;;;;;5001400;28;20419;-30
2023/03/24 05:18:12;;;;;;;4.28;3.47;;;11.30;99.90;;;;;;5027299;28;20040;-32
2023/03/24 05:20:41;;;;;;;7.10;3.70;;;11.20;99.90;;;;;;5004190;28;20029;-31
2023/03/24 05:23:17;;;;;;;5.82;3.92;;;11.20;99.90;;;;;;5013036;28;20026;-30
2023/03/24 05:25:47;;;;;;;5.55;3.88;;;11.20;99.90;;;;;;5004469;28;20499;-31
2023/03/24 05:28:13;;;;;;;4.35;3.95;;;11.20;99.90;;;;;;5002088;28;20350;-32
2023/03/24 05:30:39;;;;;;;7.50;3.80;;;11.20;99.90;;;;;;4995440;28;20069;-30
2023/03/24 05:33:05;;;;;;;6.05;3.92;;;11.10;99.90;;;;;;5003878;28;20022;-30
2023/03/24 05:35:30;;;;;;;7.60;3.75;;;11.20;99.90;;;;;;5008567;28;20048;-31
2023/03/24 05:37:56;;;;;;;6.90;3.53;;;11.20;99.90;;;;;;5009203;28;19972;-29
2023/03/24 05:40:21;;;;;;;5.68;3.88;;;11.20;99.90;;;;;;5003427;28;20593;-30
2023/03/24 05:42:49;;;;;;;9.45;4.05;;;11.20;99.90;;;;;;5006038;28;20030;-30
2023/03/24 05:45:15;;;;;;;5.75;4.03;;;11.10;99.90;;;;;;5007983;28;20050;-30
2023/03/24 05:47:41;;;;;;;8.85;4.10;;;11.20;99.90;;;;;;5003835;28;20088;-30
2023/03/24 05:50:07;;;;;;;4.32;3.80;;;11.20;99.90;;;;;;5003460;28;20037;-30
2023/03/24 05:52:34;;;;;;;6.80;3.72;;;11.20;99.90;;;;;;5007165;28;20042;-30
2023/03/24 05:55:00;;;;;;;12.43;4.07;;;11.30;99.90;;;;;;5007132;28;20018;-29
2023/03/24 05:57:29;;;;;;;19.70;5.13;;;11.30;99.90;;;;;;5008620;28;20502;-30
2023/03/24 05:59:55;;;;;;;;;;;11.30;99.90;;;;;;5006128;28;20134;-30
2023/03/24 06:02:21;;;;;;;5.03;3.58;;;11.30;99.90;;;;;;5003693;28;19925;-30
2023/03/24 06:04:47;;;;;;;5.75;3.60;;;11.20;99.90;;;;;;5006464;28;20023;-30
2023/03/24 06:07:13;;;;;;;20.60;9.60;;;11.30;99.90;;;;;;5003166;28;20464;-30
2023/03/24 06:09:41;;;;;;;32.17;16.77;;;11.20;99.90;;;;;;5009007;28;20037;-29
2023/03/24 06:12:08;;;;;;;18.63;10.40;;;11.20;99.90;;;;;;5000260;28;20570;-29
2023/03/24 06:14:33;;;;;;;17.05;9.15;;;11.20;99.90;;;;;;5008747;28;20029;-30
2023/03/24 06:16:59;;;;;;;20.17;12.48;;;11.30;99.90;;;;;;5004056;28;20084;-32
2023/03/24 06:19:26;;;;;;;19.73;9.85;;;11.30;99.90;;;;;;5006153;28;20040;-30
2023/03/24 06:21:52;;;;;;;7.38;5.25;;;11.30;99.90;;;;;;5005386;28;20026;-29
2023/03/24 06:24:18;;;;;;;5.30;3.67;;;11.30;99.90;;;;;;4999123;28;20026;-30
2023/03/24 06:26:44;;;;;;;5.30;4.13;;;11.30;99.90;;;;;;5003785;28;20121;-29
2023/03/24 06:29:11;;;;;;;4.40;3.67;;;11.20;99.90;;;;;;5010604;28;20116;-29
2023/03/24 06:31:38;;;;;;;5.38;3.60;;;11.20;99.90;;;;;;5008932;28;20030;-30
2023/03/24 06:34:04;;;;;;;5.35;3.90;;;11.20;99.90;;;;;;5024708;28;20033;-31
2023/03/24 06:36:30;;;;;;;8.43;6.80;;;11.20;99.90;;;;;;5004393;28;20034;-30
2023/03/24 06:38:56;;;;;;;7.47;4.55;;;11.10;99.90;;;;;;5005201;28;20364;-29
2023/03/24 06:41:22;;;;;;;6.55;5.70;;;11.20;99.90;;;;;;5000777;28;20034;-30
2023/03/24 06:43:48;;;;;;;6.72;5.88;;;11.20;99.90;;;;;;5001723;28;20079;-31
2023/03/24 06:46:13;;;;;;;10.20;4.82;;;11.30;99.90;;;;;;4996641;28;20061;-30
2023/03/24 06:48:39;;;;;;;6.03;3.55;;;11.30;99.90;;;;;;5005674;28;20498;-30
2023/03/24 06:51:05;;;;;;;5.35;4.63;;;11.40;99.90;;;;;;5001604;28;20544;-30
2023/03/24 06:53:31;;;;;;;5.43;3.33;;;11.40;99.90;;;;;;5008543;28;20049;-31
2023/03/24 06:55:56;;;;;;;5.07;3.38;;;11.50;99.90;;;;;;5002004;28;20034;-30
2023/03/24 06:58:22;;;;;;;5.20;3.40;;;11.50;99.90;;;;;;5004778;28;20129;-30
2023/03/24 07:00:49;;;;;;;6.28;3.58;;;11.50;99.90;;;;;;5016126;28;20048;-31
2023/03/24 07:03:15;;;;;;;4.72;3.55;;;11.60;99.90;;;;;;5002991;28;20032;-31
2023/03/24 07:05:43;;;;;;;6.22;3.83;;;11.60;99.90;;;;;;4995965;28;20041;-30
2023/03/24 07:08:10;;;;;;;5.07;3.70;;;11.70;99.90;;;;;;5002028;28;20079;-30
2023/03/24 07:10:38;;;;;;;4.88;3.53;;;11.70;99.90;;;;;;4994375;28;20034;-31
2023/03/24 07:13:04;;;;;;;4.28;3.50;;;11.70;99.90;;;;;;4999604;28;20030;-30
2023/03/24 07:15:30;;;;;;;4.13;3.72;;;11.80;99.90;;;;;;4999748;28;20109;-29
2023/03/24 07:17:56;;;;;;;5.93;3.65;;;11.80;99.90;;;;;;5001648;28;20030;-29
2023/03/24 07:20:22;;;;;;;5.18;3.67;;;11.80;99.90;;;;;;4999011;28;20483;-31
2023/03/24 07:22:48;;;;;;;4.25;3.70;;;11.70;99.90;;;;;;4997310;28;20052;-31
2023/03/24 07:25:18;;;;;;;5.95;3.58;;;11.80;99.90;;;;;;4995599;28;20080;-30
2023/03/24 07:27:44;;;;;;;6.10;3.20;;;11.80;99.90;;;;;;5003031;28;20026;-30
2023/03/24 07:30:10;;;;;;;7.35;3.42;;;11.80;99.90;;;;;;4999432;28;20065;-30
2023/03/24 07:32:38;;;;;;;4.72;3.45;;;11.80;99.90;;;;;;5007053;28;20030;-30
2023/03/24 07:35:06;;;;;;;5.88;3.63;;;11.80;99.90;;;;;;4999130;28;20034;-30
2023/03/24 07:37:32;;;;;;;3.95;3.25;;;11.80;99.90;;;;;;4996634;28;20140;-30
2023/03/24 07:39:57;;;;;;;4.95;3.20;;;11.90;99.90;;;;;;4995259;28;20368;-30
2023/03/24 07:42:24;;;;;;;6.35;3.60;;;12.00;99.90;;;;;;4996425;28;20025;-32
2023/03/24 07:44:50;;;;;;;4.72;2.97;;;12.00;99.90;;;;;;5001507;28;20057;-30
2023/03/24 07:47:16;;;;;;;6.47;3.40;;;12.10;99.90;;;;;;5003106;28;20030;-30
2023/03/24 07:49:41;;;;;;;5.63;3.25;;;12.10;99.90;;;;;;5004797;28;20045;-30
2023/03/24 07:52:07;;;;;;;3.47;2.78;;;12.20;99.90;;;;;;5008588;28;20037;-30
2023/03/24 07:54:33;;;;;;;5.70;3.20;;;12.20;99.90;;;;;;5001843;28;20037;-29
2023/03/24 07:56:59;;;;;;;3.30;2.85;;;12.30;99.90;;;;;;4997746;28;20109;-30
2023/03/24 07:59:25;;;;;;;4.85;3.00;;;12.30;99.90;;;;;;4997299;28;20041;-30
2023/03/24 08:01:52;;;;;;;4.22;3.10;;;12.30;99.90;;;;;;4998220;28;20030;-31
2023/03/24 08:04:17;;;;;;;4.50;2.85;;;12.40;99.90;;;;;;5010664;28;20088;-30
2023/03/24 08:06:43;;;;;;;6.05;3.03;;;12.40;99.90;;;;;;5000398;28;20030;-30
2023/03/24 08:09:10;;;;;;;3.13;2.70;;;12.40;99.90;;;;;;5000965;28;20039;-32
2023/03/24 08:11:36;;;;;;;4.13;2.92;;;12.40;99.90;;;;;;5000093;28;20630;-30
2023/03/24 08:14:02;;;;;;;6.20;2.67;;;12.50;99.90;;;;;;5005411;28;20040;-30
2023/03/24 08:16:28;;;;;;;3.60;3.00;;;12.60;99.90;;;;;;4996345;28;20109;-30
2023/03/24 08:18:57;;;;;;;3.30;2.80;;;12.60;99.90;;;;;;5004884;28;20033;-31
2023/03/24 08:21:23;;;;;;;;;;;12.60;99.90;;;;;;4998622;28;20058;-29
2023/03/24 08:23:48;;;;;;;4.30;2.35;;;12.60;99.90;;;;;;5000311;28;20345;-30
2023/03/24 08:26:14;;;;;;;3.13;2.60;;;12.60;99.90;;;;;;5007277;28;20032;-30
2023/03/24 08:28:40;;;;;;;3.35;2.53;;;12.70;99.90;;;;;;4996960;28;20034;-30
2023/03/24 08:31:06;;;;;;;3.15;2.85;;;12.70;99.90;;;;;;4998397;28;20045;-31
2023/03/24 08:33:32;;;;;;;2.60;2.40;;;12.80;99.90;;;;;;4998825;28;20029;-31
2023/03/24 08:35:59;;;;;;;4.45;2.78;;;12.80;99.90;;;;;;4999859;28;20043;-31
2023/03/24 08:38:32;;;;;;;4.20;3.13;;;12.80;99.90;;;;;;5003303;28;20034;-31
2023/03/24 08:41:00;;;;;;;3.45;2.92;;;12.90;99.90;;;;;;5002371;28;20030;-30
2023/03/24 08:43:27;;;;;;;;;;;12.90;99.90;;;;;;5002471;28;20037;-31
2023/03/24 08:45:54;;;;;;;3.75;2.80;;;13.00;99.90;;;;;;5002353;28;19944;-33
2023/03/24 08:48:20;;;;;;;3.75;2.67;;;13.00;99.90;;;;;;5007426;28;20029;-32
2023/03/24 08:50:46;;;;;;;4.45;2.70;;;13.00;99.90;;;;;;5004019;28;20030;-30
2023/03/24 08:53:12;;;;;;;3.83;2.90;;;13.00;99.90;;;;;;5002395;28;20498;-31
2023/03/24 08:55:41;;;;;;;3.90;3.08;;;13.10;99.90;;;;;;5000920;28;20062;-31
2023/03/24 08:58:11;;;;;;;3.60;2.97;;;13.10;99.90;;;;;;5002274;28;20038;-31
2023/03/24 09:00:37;;;;;;;5.18;3.55;;;13.10;99.90;;;;;;5002957;28;20022;-30
2023/03/24 09:03:05;;;;;;;4.30;2.88;;;13.20;99.90;;;;;;5014643;28;20116;-30
2023/03/24 09:05:31;;;;;;;4.35;3.28;;;13.20;99.90;;;;;;5000376;28;20492;-31
2023/03/24 09:07:59;;;;;;;4.55;3.40;;;13.10;99.90;;;;;;5011156;28;20040;-30
2023/03/24 09:10:25;;;;;;;3.10;2.80;;;13.10;99.90;;;;;;5005352;28;20038;-30
2023/03/24 09:12:51;;;;;;;4.60;3.08;;;13.10;99.90;;;;;;5006669;28;20040;-31
2023/03/24 09:15:17;;;;;;;3.70;3.15;;;13.10;99.90;;;;;;4998544;28;20023;-31
2023/03/24 09:17:43;;;;;;;3.67;2.80;;;13.10;99.90;;;;;;5008738;28;20034;-30
2023/03/24 09:20:13;;;;;;;2.70;2.25;;;13.10;99.90;;;;;;5004455;28;20417;-31
2023/03/24 09:22:40;;;;;;;3.22;2.25;;;13.00;99.90;;;;;;5008304;28;20018;-32
2023/03/24 09:25:06;;;;;;;3.00;2.70;;;13.00;99.90;;;;;;4999310;28;20400;-32
2023/03/24 09:27:32;;;;;;;2.80;2.40;;;13.00;99.90;;;;;;5005910;28;20084;-31
2023/03/24 09:29:58;;;;;;;4.28;2.95;;;13.00;99.90;;;;;;5023112;28;20042;-31
2023/03/24 09:32:23;;;;;;;2.78;2.45;;;13.00;99.90;;;;;;5021226;28;20087;-31
2023/03/24 09:34:49;;;;;;;2.10;1.90;;;12.90;99.90;;;;;;5010850;28;20416;-30
2023/03/24 09:37:15;;;;;;;3.10;2.28;;;12.90;99.90;;;;;;5025911;28;20065;-30
2023/03/24 09:39:40;;;;;;;2.85;2.30;;;12.80;99.90;;;;;;5002167;28;20022;-30
2023/03/24 09:42:13;;;;;;;3.28;3.05;;;12.80;99.90;;;;;;5003201;28;20037;-30
2023/03/24 09:44:49;;;;;;;2.90;2.30;;;12.80;99.90;;;;;;5003181;28;20395;-30
2023/03/24 09:47:37;;;;;;;4.03;2.15;;;12.70;99.90;;;;;;5009475;28;20026;-30
2023/03/24 09:50:24;;;;;;;2.78;1.98;;;12.70;99.90;;;;;;5005247;28;20033;-30
2023/03/24 09:52:54;;;;;;;2.08;1.77;;;12.70;99.90;;;;;;5000254;28;20492;-30
2023/03/24 09:55:23;;;;;;;2.38;2.17;;;12.80;99.90;;;;;;5002849;28;20034;-30
2023/03/24 09:57:51;;;;;;;3.47;2.30;;;12.80;99.90;;;;;;5003590;28;20701;-31
2023/03/24 10:00:24;;;;;;;2.97;2.30;;;12.80;99.90;;;;;;5010799;28;20056;-29
2023/03/24 10:02:51;;;;;;;2.58;2.35;;;12.80;99.90;;;;;;5005672;28;20153;-29
2023/03/24 10:05:33;;;;;;;2.33;2.10;;;12.80;99.90;;;;;;5006124;28;20727;-30
2023/03/24 10:08:11;;;;;;;2.95;2.65;;;12.90;99.90;;;;;;5005645;28;20034;-30
2023/03/24 10:11:21;;;;;;;3.00;2.30;;;13.10;99.90;;;;;;4999705;28;20037;-29
2023/03/24 10:13:50;;;;;;;3.08;2.63;;;13.20;99.90;;;;;;5002172;28;20776;-31
2023/03/24 10:16:25;;;;;;;2.65;2.10;;;13.30;99.90;;;;;;5002298;28;20188;-30
2023/03/24 10:19:48;;;;;;;2.15;1.80;;;13.30;99.90;;;;;;5006409;28;20030;-30
2023/03/24 10:22:24;;;;;;;2.78;2.35;;;13.50;99.90;;;;;;4978567;28;20666;-30
2023/03/24 10:25:15;;;;;;;2.25;1.95;;;13.60;99.90;;;;;;4979927;28;20145;-30
2023/03/24 10:28:09;;;;;;;4.38;2.78;;;13.50;99.90;;;;;;5000123;28;20044;-30
2023/03/24 10:30:39;;;;;;;4.82;2.65;;;13.60;99.90;;;;;;5006300;28;20022;-30
2023/03/24 10:33:05;;;;;;;5.93;2.92;;;13.50;99.90;;;;;;4999793;28;20037;-31
2023/03/24 10:35:37;;;;;;;2.88;2.63;;;13.50;99.90;;;;;;5005735;28;20391;-30
2023/03/24 10:38:17;;;;;;;3.40;2.72;;;13.50;99.90;;;;;;4999469;28;20057;-30
2023/03/24 10:40:45;;;;;;;3.72;2.42;;;13.40;99.90;;;;;;5000766;28;20419;-30
2023/03/24 10:43:11;;;;;;;2.80;2.30;;;13.40;99.90;;;;;;5005722;28;20475;-30
2023/03/24 10:45:43;;;;;;;3.75;2.28;;;13.40;99.90;;;;;;5004069;28;20050;-30
2023/03/24 10:48:11;;;;;;;4.05;2.42;;;13.30;99.90;;;;;;5000664;28;20105;-30
2023/03/24 10:50:41;;;;;;;;;;;13.40;99.90;;;;;;5004848;28;20415;-31
2023/03/24 10:53:19;;;;;;;2.80;1.60;;;13.40;99.90;;;;;;5000620;28;19913;-29
2023/03/24 10:55:46;;;;;;;3.08;1.90;;;13.40;99.90;;;;;;4998460;28;20026;-30
2023/03/24 10:58:29;;;;;;;2.35;2.15;;;13.60;99.90;;;;;;5001662;28;20038;-30
2023/03/24 11:00:57;;;;;;;2.22;1.80;;;13.70;99.90;;;;;;4997834;28;20032;-30
2023/03/24 11:03:33;;;;;;;;;;;13.90;99.90;;;;;;5003055;28;20030;-30
2023/03/24 11:06:01;;;;;;;2.05;1.80;;;13.90;99.90;;;;;;5001648;28;20359;-30
2023/03/24 11:08:27;;;;;;;1.80;1.70;;;14.00;99.90;;;;;;5011037;28;20018;-30
2023/03/24 11:10:54;;;;;;;2.15;1.85;;;14.10;99.90;;;;;;4998503;28;20399;-30
2023/03/24 11:13:30;;;;;;;2.50;1.80;;;14.10;99.90;;;;;;5006520;28;20028;-30
2023/03/24 11:16:13;;;;;;;1.92;1.60;;;14.30;99.90;;;;;;5000445;28;20072;-30
2023/03/24 11:19:00;;;;;;;2.42;1.58;;;14.50;99.90;;;;;;5002003;28;20384;-29
2023/03/24 11:21:36;;;;;;;1.87;1.77;;;14.60;99.90;;;;;;5142016;23;20118;-74
2023/03/24 11:24:13;;;;;;;1.60;1.45;;;14.70;99.90;;;;;;4991562;28;20364;-77
2023/03/24 11:26:53;;;;;;;2.05;1.85;;;14.60;99.90;;;;;;4997544;28;20064;-75
2023/03/24 11:29:40;;;;;;;2.90;2.20;;;14.70;99.90;;;;;;4988584;28;20039;-75
2023/03/24 11:32:23;;;;;;;3.47;2.10;;;14.60;99.90;;;;;;4979995;28;20067;-74
2023/03/24 11:35:12;;;;;;;3.50;2.03;;;14.50;99.90;;;;;;4981728;28;20782;-77
2023/03/24 11:37:40;;;;;;;2.60;2.38;;;14.50;99.90;;;;;;4995630;28;20034;-76
2023/03/24 11:40:11;;;;;;;3.85;2.78;;;14.50;99.90;;;;;;4982756;28;20062;-76
2023/03/24 11:42:42;;;;;;;3.05;2.42;;;14.50;99.90;;;;;;4982084;28;20034;-75
2023/03/24 11:45:36;;;;;;;5.85;2.78;;;14.60;99.90;;;;;;4979119;28;20058;-76
2023/03/24 11:48:10;;;;;;;3.53;2.70;;;14.70;99.90;;;;;;5002793;28;20113;-76
2023/03/24 11:50:37;;;;;;;3.33;2.30;;;14.70;99.90;;;;;;4989669;28;20034;-76
2023/03/24 11:53:12;;;;;;;3.00;2.37;;;14.70;99.90;;;;;;4990094;28;20038;-76
2023/03/24 11:55:46;;;;;;;2.83;2.30;;;14.70;99.90;;;;;;4989470;28;20094;-77
2023/03/24 11:58:15;;;;;;;3.78;2.55;;;14.60;99.90;;;;;;4997089;28;20052;-77
2023/03/24 12:00:42;;;;;;;3.05;2.35;;;14.70;99.90;;;;;;4995961;28;20154;-77
2023/03/24 12:03:18;;;;;;;2.00;1.83;;;14.80;99.90;;;;;;4984480;28;20092;-77
2023/03/24 12:05:51;;;;;;;2.88;2.50;;;14.70;99.90;;;;;;4997989;28;20297;-77
2023/03/24 12:08:28;;;;;;;2.95;2.13;;;14.70;99.90;;;;;;5000564;28;20050;-76
2023/03/24 12:11:02;;;;;;;2.08;1.70;;;14.70;99.90;;;;;;4990614;28;20031;-77
2023/03/24 12:13:31;;;;;;;1.80;1.70;;;14.70;99.90;;;;;;4996476;28;20044;-76
2023/03/24 12:16:06;;;;;;;;;;;14.70;99.90;;;;;;4988569;28;20037;-76
2023/03/24 12:18:47;;;;;;;2.67;1.60;;;14.40;99.90;;;;;;4996579;28;19921;-77
2023/03/24 12:21:35;;;;;;;1.88;1.55;;;14.30;99.90;;;;;;4995594;28;20053;-77
2023/03/24 12:24:32;;;;;;;1.65;1.52;;;14.30;99.90;;;;;;5006119;28;20065;-77
2023/03/24 12:26:59;;;;;;;1.67;1.58;;;14.30;99.90;;;;;;4991951;28;20045;-77
2023/03/24 12:29:37;;;;;;;1.67;1.40;;;14.50;99.90;;;;;;4996780;28;20042;-79
2023/03/24 12:32:17;;;;;;;1.80;1.50;;;14.80;99.90;;;;;;4999795;28;20599;-77
2023/03/24 12:35:02;;;;;;;1.00;1.00;;;14.90;99.90;;;;;;4989970;28;20107;-77
2023/03/24 12:37:33;;;;;;;1.27;1.27;;;14.90;99.90;;;;;;5001135;28;20034;-78
2023/03/24 12:40:11;;;;;;;1.30;1.15;;;14.80;99.90;;;;;;5006145;28;20046;-78
2023/03/24 12:42:43;;;;;;;1.30;1.20;;;14.60;99.90;;;;;;4993467;28;20027;-79
2023/03/24 12:45:21;;;;;;;2.65;1.10;;;14.50;99.90;;;;;;4993298;28;20030;-79
2023/03/24 12:48:07;;;;;;;0.90;0.87;;;14.50;99.90;;;;;;4993926;28;20866;-78
2023/03/24 12:50:47;;;;;;;1.05;1.00;;;14.30;99.90;;;;;;4964379;28;20278;-79
2023/03/24 12:53:35;;;;;;;1.20;1.10;;;14.30;99.90;;;;;;5000812;28;20031;-79
2023/03/24 12:56:18;;;;;;;;;;;14.10;99.90;;;;;;4995022;28;20038;-79
2023/03/24 12:59:01;;;;;;;1.15;1.08;;;14.00;99.90;;;;;;5005274;28;19940;-78
2023/03/24 13:01:34;;;;;;;0.93;0.93;;;13.80;99.90;;;;;;4994386;28;20050;-79
2023/03/24 13:04:21;;;;;;;0.90;0.90;;;13.80;99.90;;;;;;5002620;28;20082;-77
2023/03/24 13:07:13;;;;;;;1.38;1.15;;;13.80;99.90;;;;;;4993091;28;20023;-78
2023/03/24 13:09:58;;;;;;;1.48;1.38;;;13.80;99.90;;;;;;4989471;28;20034;-79
2023/03/24 13:12:35;;;;;;;0.88;0.68;;;13.90;99.90;;;;;;5003339;28;20044;-77
2023/03/24 13:15:38;;;;;;;1.10;1.00;;;13.90;99.90;;;;;;4996935;28;20034;-77
2023/03/24 13:18:10;;;;;;;0.77;0.77;;;13.90;99.90;;;;;;5000877;28;20038;-78
2023/03/24 13:20:46;;;;;;;2.88;1.20;;;14.10;99.90;;;;;;4994678;28;20530;-78
2023/03/24 13:23:34;;;;;;;2.35;1.20;;;14.20;99.90;;;;;;4996295;28;20077;-78
2023/03/24 13:26:46;;;;;;;1.45;1.17;;;14.40;99.90;;;;;;4993491;28;20118;-79
2023/03/24 13:29:48;;;;;;;1.00;1.00;;;14.50;99.90;;;;;;4989849;28;20050;-78